sensor_id;sensor_type;location;lat;lon;timestamp;temperature;humidity
75893;DHT22;64572;50.950;3.676;2022-12-07T00:01:14;5.20;96.70
75893;DHT22;64572;50.950;3.676;2022-12-07T00:03:41;5.40;96.90
75893;DHT22;64572;50.950;3.676;2022-12-07T00:06:08;5.30;96.90
75893;DHT22;64572;50.950;3.676;2022-12-07T00:08:35;5.40;97.10
75893;DHT22;64572;50.950;3.676;2022-12-07T00:11:02;5.40;97.10
75893;DHT22;64572;50.950;3.676;2022-12-07T00:13:29;5.40;97.10
75893;DHT22;64572;50.950;3.676;2022-12-07T00:15:55;5.40;97.10
75893;DHT22;64572;50.950;3.676;2022-12-07T00:18:20;5.40;97.10
75893;DHT22;64572;50.950;3.676;2022-12-07T00:20:46;5.50;97.10
75893;DHT22;64572;50.950;3.676;2022-12-07T00:23:12;5.50;97.00
75893;DHT22;64572;50.950;3.676;2022-12-07T00:25:37;5.50;96.90
75893;DHT22;64572;50.950;3.676;2022-12-07T00:28:03;5.50;97.00
75893;DHT22;64572;50.950;3.676;2022-12-07T00:30:29;5.50;96.90
75893;DHT22;64572;50.950;3.676;2022-12-07T00:32:57;5.60;96.60
75893;DHT22;64572;50.950;3.676;2022-12-07T00:35:23;5.50;96.40
75893;DHT22;64572;50.950;3.676;2022-12-07T00:37:51;5.30;96.80
75893;DHT22;64572;50.950;3.676;2022-12-07T00:40:18;5.20;97.10
75893;DHT22;64572;50.950;3.676;2022-12-07T00:42:43;5.20;97.30
75893;DHT22;64572;50.950;3.676;2022-12-07T00:45:09;5.20;97.40
75893;DHT22;64572;50.950;3.676;2022-12-07T00:47:38;5.10;97.40
75893;DHT22;64572;50.950;3.676;2022-12-07T00:50:04;5.20;97.50
75893;DHT22;64572;50.950;3.676;2022-12-07T00:52:33;5.20;97.50
75893;DHT22;64572;50.950;3.676;2022-12-07T00:54:58;5.10;97.50
75893;DHT22;64572;50.950;3.676;2022-12-07T00:57:24;5.10;97.60
75893;DHT22;64572;50.950;3.676;2022-12-07T00:59:50;5.10;97.50
75893;DHT22;64572;50.950;3.676;2022-12-07T01:02:18;5.20;97.40
75893;DHT22;64572;50.950;3.676;2022-12-07T01:04:44;5.00;97.30
75893;DHT22;64572;50.950;3.676;2022-12-07T01:07:09;5.00;97.40
75893;DHT22;64572;50.950;3.676;2022-12-07T01:09:35;5.10;96.90
75893;DHT22;64572;50.950;3.676;2022-12-07T01:12:01;5.10;96.40
75893;DHT22;64572;50.950;3.676;2022-12-07T01:14:28;5.20;96.00
75893;DHT22;64572;50.950;3.676;2022-12-07T01:16:53;5.30;95.50
75893;DHT22;64572;50.950;3.676;2022-12-07T01:19:19;5.20;95.60
75893;DHT22;64572;50.950;3.676;2022-12-07T01:21:44;5.10;95.20
75893;DHT22;64572;50.950;3.676;2022-12-07T01:24:11;5.00;95.40
75893;DHT22;64572;50.950;3.676;2022-12-07T01:26:37;4.90;95.50
75893;DHT22;64572;50.950;3.676;2022-12-07T01:29:03;4.80;95.60
75893;DHT22;64572;50.950;3.676;2022-12-07T01:31:29;4.80;95.70
75893;DHT22;64572;50.950;3.676;2022-12-07T01:33:56;4.80;95.40
75893;DHT22;64572;50.950;3.676;2022-12-07T01:36:31;5.00;95.10
75893;DHT22;64572;50.950;3.676;2022-12-07T01:39:00;4.80;95.30
75893;DHT22;64572;50.950;3.676;2022-12-07T01:41:28;4.40;96.30
75893;DHT22;64572;50.950;3.676;2022-12-07T01:44:25;4.30;97.00
75893;DHT22;64572;50.950;3.676;2022-12-07T01:46:59;4.30;97.40
75893;DHT22;64572;50.950;3.676;2022-12-07T01:49:38;4.50;97.00
75893;DHT22;64572;50.950;3.676;2022-12-07T01:52:41;4.40;96.80
75893;DHT22;64572;50.950;3.676;2022-12-07T01:55:09;4.50;96.90
75893;DHT22;64572;50.950;3.676;2022-12-07T01:57:40;4.70;96.30
75893;DHT22;64572;50.950;3.676;2022-12-07T02:00:08;4.80;96.00
75893;DHT22;64572;50.950;3.676;2022-12-07T02:02:36;5.00;95.60
75893;DHT22;64572;50.950;3.676;2022-12-07T02:05:04;4.70;95.80
75893;DHT22;64572;50.950;3.676;2022-12-07T02:07:32;4.60;96.50
75893;DHT22;64572;50.950;3.676;2022-12-07T02:10:12;4.70;96.30
75893;DHT22;64572;50.950;3.676;2022-12-07T02:12:38;4.70;96.10
75893;DHT22;64572;50.950;3.676;2022-12-07T02:15:04;4.80;96.00
75893;DHT22;64572;50.950;3.676;2022-12-07T02:28:31;5.00;94.70
75893;DHT22;64572;50.950;3.676;2022-12-07T02:31:10;4.90;93.90
75893;DHT22;64572;50.950;3.676;2022-12-07T02:33:43;4.80;93.20
75893;DHT22;64572;50.950;3.676;2022-12-07T02:36:32;4.70;92.90
75893;DHT22;64572;50.950;3.676;2022-12-07T02:39:09;4.60;93.50
75893;DHT22;64572;50.950;3.676;2022-12-07T02:41:58;4.30;94.40
75893;DHT22;64572;50.950;3.676;2022-12-07T02:44:27;4.20;95.60
75893;DHT22;64572;50.950;3.676;2022-12-07T02:47:07;4.30;95.80
75893;DHT22;64572;50.950;3.676;2022-12-07T02:49:36;4.20;95.40
75893;DHT22;64572;50.950;3.676;2022-12-07T02:52:03;4.40;95.30
75893;DHT22;64572;50.950;3.676;2022-12-07T02:54:32;4.20;95.60
75893;DHT22;64572;50.950;3.676;2022-12-07T02:59:58;4.30;96.30
75893;DHT22;64572;50.950;3.676;2022-12-07T03:08:57;4.50;95.60
75893;DHT22;64572;50.950;3.676;2022-12-07T03:11:03;4.20;96.00
75893;DHT22;64572;50.950;3.676;2022-12-07T03:14:18;4.10;96.70
75893;DHT22;64572;50.950;3.676;2022-12-07T03:17:10;4.20;97.40
75893;DHT22;64572;50.950;3.676;2022-12-07T03:19:39;4.30;97.60
75893;DHT22;64572;50.950;3.676;2022-12-07T03:22:13;4.40;97.40
75893;DHT22;64572;50.950;3.676;2022-12-07T03:24:43;4.60;97.30
75893;DHT22;64572;50.950;3.676;2022-12-07T03:27:17;4.60;97.20
75893;DHT22;64572;50.950;3.676;2022-12-07T03:30:06;4.50;97.40
75893;DHT22;64572;50.950;3.676;2022-12-07T03:32:40;4.50;97.50
75893;DHT22;64572;50.950;3.676;2022-12-07T03:35:13;4.40;97.60
75893;DHT22;64572;50.950;3.676;2022-12-07T03:37:52;4.40;97.60
75893;DHT22;64572;50.950;3.676;2022-12-07T03:40:37;4.50;97.90
75893;DHT22;64572;50.950;3.676;2022-12-07T03:43:05;4.70;97.40
75893;DHT22;64572;50.950;3.676;2022-12-07T03:45:40;4.50;97.40
75893;DHT22;64572;50.950;3.676;2022-12-07T03:48:21;4.40;97.60
75893;DHT22;64572;50.950;3.676;2022-12-07T03:56:34;4.00;98.00
75893;DHT22;64572;50.950;3.676;2022-12-07T03:59:00;3.90;98.00
75893;DHT22;64572;50.950;3.676;2022-12-07T04:01:26;3.90;98.10
75893;DHT22;64572;50.950;3.676;2022-12-07T04:03:52;4.00;98.20
75893;DHT22;64572;50.950;3.676;2022-12-07T04:06:18;4.30;97.90
75893;DHT22;64572;50.950;3.676;2022-12-07T04:08:44;4.40;97.00
75893;DHT22;64572;50.950;3.676;2022-12-07T04:11:09;4.50;96.80
75893;DHT22;64572;50.950;3.676;2022-12-07T04:13:35;4.50;96.40
75893;DHT22;64572;50.950;3.676;2022-12-07T04:16:21;4.40;96.70
75893;DHT22;64572;50.950;3.676;2022-12-07T04:18:46;4.60;96.30
75893;DHT22;64572;50.950;3.676;2022-12-07T04:21:12;4.60;95.80
75893;DHT22;64572;50.950;3.676;2022-12-07T04:23:37;4.60;95.70
75893;DHT22;64572;50.950;3.676;2022-12-07T04:26:03;4.20;96.20
75893;DHT22;64572;50.950;3.676;2022-12-07T04:28:29;3.90;96.70
75893;DHT22;64572;50.950;3.676;2022-12-07T04:30:54;3.80;97.10
75893;DHT22;64572;50.950;3.676;2022-12-07T04:33:20;4.00;97.00
75893;DHT22;64572;50.950;3.676;2022-12-07T04:35:46;4.00;96.70
75893;DHT22;64572;50.950;3.676;2022-12-07T04:38:11;4.20;96.60
75893;DHT22;64572;50.950;3.676;2022-12-07T04:40:37;4.40;96.10
75893;DHT22;64572;50.950;3.676;2022-12-07T04:43:02;4.40;95.70
75893;DHT22;64572;50.950;3.676;2022-12-07T04:45:30;4.50;95.50
75893;DHT22;64572;50.950;3.676;2022-12-07T04:47:56;4.30;95.70
75893;DHT22;64572;50.950;3.676;2022-12-07T04:50:21;4.20;96.10
75893;DHT22;64572;50.950;3.676;2022-12-07T04:52:47;4.30;96.30
75893;DHT22;64572;50.950;3.676;2022-12-07T04:55:12;4.30;96.40
75893;DHT22;64572;50.950;3.676;2022-12-07T04:57:38;4.20;96.60
75893;DHT22;64572;50.950;3.676;2022-12-07T05:00:04;4.40;96.80
75893;DHT22;64572;50.950;3.676;2022-12-07T05:02:30;4.20;96.70
75893;DHT22;64572;50.950;3.676;2022-12-07T05:04:56;4.10;97.10
75893;DHT22;64572;50.950;3.676;2022-12-07T05:07:22;3.90;97.00
75893;DHT22;64572;50.950;3.676;2022-12-07T05:09:47;3.70;97.10
75893;DHT22;64572;50.950;3.676;2022-12-07T05:12:13;3.70;97.80
75893;DHT22;64572;50.950;3.676;2022-12-07T05:14:38;3.70;98.50
75893;DHT22;64572;50.950;3.676;2022-12-07T05:17:04;3.70;98.40
75893;DHT22;64572;50.950;3.676;2022-12-07T05:19:30;3.90;98.80
75893;DHT22;64572;50.950;3.676;2022-12-07T05:21:55;4.20;98.70
75893;DHT22;64572;50.950;3.676;2022-12-07T05:24:21;4.30;98.40
75893;DHT22;64572;50.950;3.676;2022-12-07T05:26:47;4.40;98.20
75893;DHT22;64572;50.950;3.676;2022-12-07T05:29:14;4.40;97.70
75893;DHT22;64572;50.950;3.676;2022-12-07T05:31:41;4.50;97.40
75893;DHT22;64572;50.950;3.676;2022-12-07T05:34:07;4.60;96.90
75893;DHT22;64572;50.950;3.676;2022-12-07T05:36:32;4.70;96.60
75893;DHT22;64572;50.950;3.676;2022-12-07T05:39:02;4.80;96.10
75893;DHT22;64572;50.950;3.676;2022-12-07T05:41:28;4.90;95.70
75893;DHT22;64572;50.950;3.676;2022-12-07T05:44:12;4.60;95.60
75893;DHT22;64572;50.950;3.676;2022-12-07T05:46:37;4.50;95.90
75893;DHT22;64572;50.950;3.676;2022-12-07T05:49:03;4.60;95.30
75893;DHT22;64572;50.950;3.676;2022-12-07T05:51:28;4.40;94.10
75893;DHT22;64572;50.950;3.676;2022-12-07T05:53:54;4.30;94.10
75893;DHT22;64572;50.950;3.676;2022-12-07T05:56:20;4.20;93.50
75893;DHT22;64572;50.950;3.676;2022-12-07T05:58:45;4.10;93.60
75893;DHT22;64572;50.950;3.676;2022-12-07T06:01:30;4.00;93.70
75893;DHT22;64572;50.950;3.676;2022-12-07T06:03:56;4.00;94.10
75893;DHT22;64572;50.950;3.676;2022-12-07T06:06:22;4.20;94.00
75893;DHT22;64572;50.950;3.676;2022-12-07T06:08:47;4.10;93.70
75893;DHT22;64572;50.950;3.676;2022-12-07T06:11:13;4.00;93.10
75893;DHT22;64572;50.950;3.676;2022-12-07T06:13:57;4.00;92.80
75893;DHT22;64572;50.950;3.676;2022-12-07T06:16:23;3.70;92.70
75893;DHT22;64572;50.950;3.676;2022-12-07T06:18:48;3.50;92.90
75893;DHT22;64572;50.950;3.676;2022-12-07T06:21:14;3.30;93.90
75893;DHT22;64572;50.950;3.676;2022-12-07T06:23:40;3.40;94.40
75893;DHT22;64572;50.950;3.676;2022-12-07T06:26:05;3.70;94.50
75893;DHT22;64572;50.950;3.676;2022-12-07T06:28:31;4.00;94.90
75893;DHT22;64572;50.950;3.676;2022-12-07T06:30:58;3.90;95.50
75893;DHT22;64572;50.950;3.676;2022-12-07T06:33:24;3.70;96.10
75893;DHT22;64572;50.950;3.676;2022-12-07T06:35:50;3.60;96.80
75893;DHT22;64572;50.950;3.676;2022-12-07T06:38:16;3.80;97.00
75893;DHT22;64572;50.950;3.676;2022-12-07T06:40:42;4.00;96.40
75893;DHT22;64572;50.950;3.676;2022-12-07T06:43:08;3.90;95.40
75893;DHT22;64572;50.950;3.676;2022-12-07T06:45:33;3.80;95.50
75893;DHT22;64572;50.950;3.676;2022-12-07T06:47:59;3.80;96.10
75893;DHT22;64572;50.950;3.676;2022-12-07T06:50:25;3.60;96.50
75893;DHT22;64572;50.950;3.676;2022-12-07T06:52:51;3.80;96.20
75893;DHT22;64572;50.950;3.676;2022-12-07T06:55:17;4.00;95.60
75893;DHT22;64572;50.950;3.676;2022-12-07T06:57:42;3.90;95.10
75893;DHT22;64572;50.950;3.676;2022-12-07T07:00:09;3.90;95.40
75893;DHT22;64572;50.950;3.676;2022-12-07T07:02:35;3.60;96.20
75893;DHT22;64572;50.950;3.676;2022-12-07T07:05:00;3.70;96.30
75893;DHT22;64572;50.950;3.676;2022-12-07T07:07:26;3.60;96.10
75893;DHT22;64572;50.950;3.676;2022-12-07T07:09:52;3.70;96.20
75893;DHT22;64572;50.950;3.676;2022-12-07T07:12:17;3.90;96.10
75893;DHT22;64572;50.950;3.676;2022-12-07T07:14:43;3.90;96.00
75893;DHT22;64572;50.950;3.676;2022-12-07T07:17:09;4.00;96.20
75893;DHT22;64572;50.950;3.676;2022-12-07T07:19:34;4.00;96.80
75893;DHT22;64572;50.950;3.676;2022-12-07T07:22:01;4.30;96.90
75893;DHT22;64572;50.950;3.676;2022-12-07T07:24:26;4.30;96.30
75893;DHT22;64572;50.950;3.676;2022-12-07T07:26:52;4.40;95.70
75893;DHT22;64572;50.950;3.676;2022-12-07T07:29:17;4.50;95.60
75893;DHT22;64572;50.950;3.676;2022-12-07T07:31:43;4.20;96.00
75893;DHT22;64572;50.950;3.676;2022-12-07T07:34:09;4.30;96.60
75893;DHT22;64572;50.950;3.676;2022-12-07T07:36:35;4.50;96.40
75893;DHT22;64572;50.950;3.676;2022-12-07T07:39:00;4.40;95.50
75893;DHT22;64572;50.950;3.676;2022-12-07T07:41:26;4.50;95.20
75893;DHT22;64572;50.950;3.676;2022-12-07T07:43:52;4.50;94.80
75893;DHT22;64572;50.950;3.676;2022-12-07T07:46:17;4.50;94.60
75893;DHT22;64572;50.950;3.676;2022-12-07T07:48:43;4.40;94.30
75893;DHT22;64572;50.950;3.676;2022-12-07T07:51:09;4.50;94.20
75893;DHT22;64572;50.950;3.676;2022-12-07T07:53:34;4.30;94.70
75893;DHT22;64572;50.950;3.676;2022-12-07T07:56:00;4.50;95.30
75893;DHT22;64572;50.950;3.676;2022-12-07T07:58:26;4.60;95.50
75893;DHT22;64572;50.950;3.676;2022-12-07T08:00:52;4.60;95.60
75893;DHT22;64572;50.950;3.676;2022-12-07T08:03:18;4.60;96.00
75893;DHT22;64572;50.950;3.676;2022-12-07T08:05:44;4.60;96.40
75893;DHT22;64572;50.950;3.676;2022-12-07T08:08:10;4.60;96.60
75893;DHT22;64572;50.950;3.676;2022-12-07T08:10:35;4.90;96.20
75893;DHT22;64572;50.950;3.676;2022-12-07T08:13:02;5.20;95.50
75893;DHT22;64572;50.950;3.676;2022-12-07T08:15:40;5.30;95.30
75893;DHT22;64572;50.950;3.676;2022-12-07T08:18:06;5.30;95.40
75893;DHT22;64572;50.950;3.676;2022-12-07T08:20:34;5.20;95.20
75893;DHT22;64572;50.950;3.676;2022-12-07T08:23:00;4.90;96.00
75893;DHT22;64572;50.950;3.676;2022-12-07T08:25:26;4.80;96.60
75893;DHT22;64572;50.950;3.676;2022-12-07T08:27:52;4.80;96.80
75893;DHT22;64572;50.950;3.676;2022-12-07T08:30:18;4.80;96.80
75893;DHT22;64572;50.950;3.676;2022-12-07T08:32:45;4.90;96.60
75893;DHT22;64572;50.950;3.676;2022-12-07T08:35:11;4.80;96.80
75893;DHT22;64572;50.950;3.676;2022-12-07T08:37:36;4.80;97.10
75893;DHT22;64572;50.950;3.676;2022-12-07T08:40:04;4.70;97.20
75893;DHT22;64572;50.950;3.676;2022-12-07T08:42:30;4.80;97.30
75893;DHT22;64572;50.950;3.676;2022-12-07T08:45:05;4.80;97.10
75893;DHT22;64572;50.950;3.676;2022-12-07T08:47:31;4.80;97.10
75893;DHT22;64572;50.950;3.676;2022-12-07T08:49:57;4.90;97.10
75893;DHT22;64572;50.950;3.676;2022-12-07T08:52:29;4.90;97.10
75893;DHT22;64572;50.950;3.676;2022-12-07T08:54:55;4.90;97.30
75893;DHT22;64572;50.950;3.676;2022-12-07T08:57:21;4.90;97.30
75893;DHT22;64572;50.950;3.676;2022-12-07T08:59:47;4.90;97.40
75893;DHT22;64572;50.950;3.676;2022-12-07T09:02:13;4.90;97.30
75893;DHT22;64572;50.950;3.676;2022-12-07T09:04:38;5.30;96.90
75893;DHT22;64572;50.950;3.676;2022-12-07T09:07:04;5.30;96.10
75893;DHT22;64572;50.950;3.676;2022-12-07T09:09:30;5.10;96.50
75893;DHT22;64572;50.950;3.676;2022-12-07T09:11:55;5.10;97.00
75893;DHT22;64572;50.950;3.676;2022-12-07T09:14:22;5.10;97.10
75893;DHT22;64572;50.950;3.676;2022-12-07T09:16:47;5.20;97.20
75893;DHT22;64572;50.950;3.676;2022-12-07T09:19:13;5.50;96.80
75893;DHT22;64572;50.950;3.676;2022-12-07T09:21:39;5.60;96.10
75893;DHT22;64572;50.950;3.676;2022-12-07T09:24:05;5.70;95.80
75893;DHT22;64572;50.950;3.676;2022-12-07T09:26:30;5.90;95.30
75893;DHT22;64572;50.950;3.676;2022-12-07T09:28:56;6.10;94.80
75893;DHT22;64572;50.950;3.676;2022-12-07T09:31:22;6.10;94.50
75893;DHT22;64572;50.950;3.676;2022-12-07T09:33:59;6.20;94.30
75893;DHT22;64572;50.950;3.676;2022-12-07T09:36:25;6.40;93.80
75893;DHT22;64572;50.950;3.676;2022-12-07T09:38:51;6.20;94.30
75893;DHT22;64572;50.950;3.676;2022-12-07T09:41:18;5.80;95.40
75893;DHT22;64572;50.950;3.676;2022-12-07T09:43:44;5.60;96.00
75893;DHT22;64572;50.950;3.676;2022-12-07T09:46:14;5.60;96.20
75893;DHT22;64572;50.950;3.676;2022-12-07T09:48:42;5.50;96.40
75893;DHT22;64572;50.950;3.676;2022-12-07T09:51:19;5.40;96.70
75893;DHT22;64572;50.950;3.676;2022-12-07T09:53:46;5.30;97.00
75893;DHT22;64572;50.950;3.676;2022-12-07T09:56:19;5.40;97.20
75893;DHT22;64572;50.950;3.676;2022-12-07T09:58:46;5.50;97.20
75893;DHT22;64572;50.950;3.676;2022-12-07T10:01:15;5.70;96.50
75893;DHT22;64572;50.950;3.676;2022-12-07T10:04:09;5.80;96.90
75893;DHT22;64572;50.950;3.676;2022-12-07T10:06:35;5.90;96.90
75893;DHT22;64572;50.950;3.676;2022-12-07T10:09:01;5.90;96.40
75893;DHT22;64572;50.950;3.676;2022-12-07T10:11:28;6.00;96.30
75893;DHT22;64572;50.950;3.676;2022-12-07T10:13:53;6.10;96.40
75893;DHT22;64572;50.950;3.676;2022-12-07T10:16:32;6.20;96.10
75893;DHT22;64572;50.950;3.676;2022-12-07T10:19:27;6.50;96.20
75893;DHT22;64572;50.950;3.676;2022-12-07T10:22:11;6.80;96.00
75893;DHT22;64572;50.950;3.676;2022-12-07T10:24:42;7.20;94.90
75893;DHT22;64572;50.950;3.676;2022-12-07T10:27:34;7.50;93.70
75893;DHT22;64572;50.950;3.676;2022-12-07T10:30:07;7.80;93.30
75893;DHT22;64572;50.950;3.676;2022-12-07T10:32:35;8.00;92.30
75893;DHT22;64572;50.950;3.676;2022-12-07T10:35:28;7.90;91.90
75893;DHT22;64572;50.950;3.676;2022-12-07T10:37:57;8.10;92.40
75893;DHT22;64572;50.950;3.676;2022-12-07T10:40:33;8.30;90.80
75893;DHT22;64572;50.950;3.676;2022-12-07T10:51:24;8.80;90.30
75893;DHT22;64572;50.950;3.676;2022-12-07T10:54:08;7.60;92.00
75893;DHT22;64572;50.950;3.676;2022-12-07T10:56:52;7.40;93.40
75893;DHT22;64572;50.950;3.676;2022-12-07T10:59:39;7.20;93.50
75893;DHT22;64572;50.950;3.676;2022-12-07T11:05:23;7.30;93.10
75893;DHT22;64572;50.950;3.676;2022-12-07T11:16:00;6.40;96.00
75893;DHT22;64572;50.950;3.676;2022-12-07T11:18:32;6.30;96.00
75893;DHT22;64572;50.950;3.676;2022-12-07T11:21:18;6.20;95.80
75893;DHT22;64572;50.950;3.676;2022-12-07T11:23:52;6.20;96.00
75893;DHT22;64572;50.950;3.676;2022-12-07T11:26:42;6.30;96.50
75893;DHT22;64572;50.950;3.676;2022-12-07T11:32:04;6.50;96.00
75893;DHT22;64572;50.950;3.676;2022-12-07T11:37:31;6.70;95.60
75893;DHT22;64572;50.950;3.676;2022-12-07T11:42:55;6.70;95.50
75893;DHT22;64572;50.950;3.676;2022-12-07T11:45:27;7.00;94.90
75893;DHT22;64572;50.950;3.676;2022-12-07T11:50:50;6.90;95.00
75893;DHT22;64572;50.950;3.676;2022-12-07T11:53:27;6.90;95.30
75893;DHT22;64572;50.950;3.676;2022-12-07T12:01:01;7.50;94.40
75893;DHT22;64572;50.950;3.676;2022-12-07T12:03:37;8.40;91.80
75893;DHT22;64572;50.950;3.676;2022-12-07T12:06:03;9.00;91.00
75893;DHT22;64572;50.950;3.676;2022-12-07T12:08:34;8.90;89.80
75893;DHT22;64572;50.950;3.676;2022-12-07T12:13:57;7.60;91.90
75893;DHT22;64572;50.950;3.676;2022-12-07T12:22:17;6.80;94.50
75893;DHT22;64572;50.950;3.676;2022-12-07T12:24:45;6.90;94.00
75893;DHT22;64572;50.950;3.676;2022-12-07T12:27:33;6.70;93.80
75893;DHT22;64572;50.950;3.676;2022-12-07T12:30:02;6.70;94.20
75893;DHT22;64572;50.950;3.676;2022-12-07T12:32:44;6.70;94.20
75893;DHT22;64572;50.950;3.676;2022-12-07T12:35:33;6.80;94.30
75893;DHT22;64572;50.950;3.676;2022-12-07T12:38:29;6.90;93.80
75893;DHT22;64572;50.950;3.676;2022-12-07T12:40:56;7.00;92.70
75893;DHT22;64572;50.950;3.676;2022-12-07T12:43:46;6.90;92.80
75893;DHT22;64572;50.950;3.676;2022-12-07T12:54:26;6.70;93.20
75893;DHT22;64572;50.950;3.676;2022-12-07T12:59:42;6.60;93.60
75893;DHT22;64572;50.950;3.676;2022-12-07T13:02:34;6.30;93.50
75893;DHT22;64572;50.950;3.676;2022-12-07T13:15:43;6.20;93.30
75893;DHT22;64572;50.950;3.676;2022-12-07T13:23:52;6.50;93.10
75893;DHT22;64572;50.950;3.676;2022-12-07T13:26:41;6.60;92.90
75893;DHT22;64572;50.950;3.676;2022-12-07T13:29:20;6.80;93.10
75893;DHT22;64572;50.950;3.676;2022-12-07T13:31:55;6.90;92.20
75893;DHT22;64572;50.950;3.676;2022-12-07T13:34:37;6.90;92.00
75893;DHT22;64572;50.950;3.676;2022-12-07T13:37:25;7.00;92.50
75893;DHT22;64572;50.950;3.676;2022-12-07T13:39:58;7.00;92.70
75893;DHT22;64572;50.950;3.676;2022-12-07T13:42:25;7.20;92.20
75893;DHT22;64572;50.950;3.676;2022-12-07T13:44:51;7.20;92.40
75893;DHT22;64572;50.950;3.676;2022-12-07T13:49:58;7.10;92.50
75893;DHT22;64572;50.950;3.676;2022-12-07T13:52:27;7.10;92.90
75893;DHT22;64572;50.950;3.676;2022-12-07T13:57:32;7.00;92.80
75893;DHT22;64572;50.950;3.676;2022-12-07T14:00:04;6.90;92.80
75893;DHT22;64572;50.950;3.676;2022-12-07T14:02:32;6.90;92.60
75893;DHT22;64572;50.950;3.676;2022-12-07T14:05:16;6.80;92.80
75893;DHT22;64572;50.950;3.676;2022-12-07T14:08:03;6.70;93.00
75893;DHT22;64572;50.950;3.676;2022-12-07T14:10:35;6.60;93.20
75893;DHT22;64572;50.950;3.676;2022-12-07T14:13:03;6.50;93.50
75893;DHT22;64572;50.950;3.676;2022-12-07T14:15:51;6.50;93.50
75893;DHT22;64572;50.950;3.676;2022-12-07T14:23:40;6.90;93.00
75893;DHT22;64572;50.950;3.676;2022-12-07T14:26:19;7.00;92.90
75893;DHT22;64572;50.950;3.676;2022-12-07T14:28:46;7.00;92.70
75893;DHT22;64572;50.950;3.676;2022-12-07T14:31:14;7.00;92.50
75893;DHT22;64572;50.950;3.676;2022-12-07T14:33:41;7.00;92.70
75893;DHT22;64572;50.950;3.676;2022-12-07T14:36:09;6.90;92.80
75893;DHT22;64572;50.950;3.676;2022-12-07T14:38:35;6.90;93.20
75893;DHT22;64572;50.950;3.676;2022-12-07T14:41:01;6.80;93.20
75893;DHT22;64572;50.950;3.676;2022-12-07T14:43:45;6.70;93.10
75893;DHT22;64572;50.950;3.676;2022-12-07T14:46:11;6.50;93.30
75893;DHT22;64572;50.950;3.676;2022-12-07T14:48:37;6.50;93.20
75893;DHT22;64572;50.950;3.676;2022-12-07T14:51:02;6.40;93.20
75893;DHT22;64572;50.950;3.676;2022-12-07T14:53:34;6.40;92.60
75893;DHT22;64572;50.950;3.676;2022-12-07T14:56:01;6.50;92.70
75893;DHT22;64572;50.950;3.676;2022-12-07T14:58:27;6.40;92.60
75893;DHT22;64572;50.950;3.676;2022-12-07T15:00:53;6.40;92.50
75893;DHT22;64572;50.950;3.676;2022-12-07T15:03:18;6.40;92.70
75893;DHT22;64572;50.950;3.676;2022-12-07T15:05:44;6.20;92.40
75893;DHT22;64572;50.950;3.676;2022-12-07T15:08:13;6.10;92.60
75893;DHT22;64572;50.950;3.676;2022-12-07T15:10:39;6.00;93.00
75893;DHT22;64572;50.950;3.676;2022-12-07T15:13:05;5.90;93.00
75893;DHT22;64572;50.950;3.676;2022-12-07T15:15:51;5.80;93.30
75893;DHT22;64572;50.950;3.676;2022-12-07T15:18:18;5.70;93.40
75893;DHT22;64572;50.950;3.676;2022-12-07T15:20:44;5.70;93.40
75893;DHT22;64572;50.950;3.676;2022-12-07T15:23:11;5.80;93.50
75893;DHT22;64572;50.950;3.676;2022-12-07T15:25:40;5.80;93.50
75893;DHT22;64572;50.950;3.676;2022-12-07T15:28:05;5.90;93.40
75893;DHT22;64572;50.950;3.676;2022-12-07T15:30:31;6.00;93.30
75893;DHT22;64572;50.950;3.676;2022-12-07T15:32:57;5.90;93.30
75893;DHT22;64572;50.950;3.676;2022-12-07T15:35:22;5.90;93.50
75893;DHT22;64572;50.950;3.676;2022-12-07T15:37:48;5.70;93.60
75893;DHT22;64572;50.950;3.676;2022-12-07T15:40:15;5.60;93.90
75893;DHT22;64572;50.950;3.676;2022-12-07T15:42:40;5.50;94.00
75893;DHT22;64572;50.950;3.676;2022-12-07T15:45:07;5.40;94.20
75893;DHT22;64572;50.950;3.676;2022-12-07T15:47:42;5.40;94.40
75893;DHT22;64572;50.950;3.676;2022-12-07T15:50:11;5.20;94.50
75893;DHT22;64572;50.950;3.676;2022-12-07T15:52:37;5.20;94.70
75893;DHT22;64572;50.950;3.676;2022-12-07T15:55:04;5.20;94.70
75893;DHT22;64572;50.950;3.676;2022-12-07T15:57:31;5.10;94.60
75893;DHT22;64572;50.950;3.676;2022-12-07T15:59:57;5.00;94.80
75893;DHT22;64572;50.950;3.676;2022-12-07T16:02:23;5.00;94.90
75893;DHT22;64572;50.950;3.676;2022-12-07T16:04:50;4.90;95.00
75893;DHT22;64572;50.950;3.676;2022-12-07T16:07:16;4.90;95.30
75893;DHT22;64572;50.950;3.676;2022-12-07T16:09:43;5.20;94.70
75893;DHT22;64572;50.950;3.676;2022-12-07T16:12:10;5.20;94.30
75893;DHT22;64572;50.950;3.676;2022-12-07T16:14:37;5.00;94.70
75893;DHT22;64572;50.950;3.676;2022-12-07T16:17:02;4.90;95.00
75893;DHT22;64572;50.950;3.676;2022-12-07T16:19:30;4.80;95.20
75893;DHT22;64572;50.950;3.676;2022-12-07T16:21:56;4.90;95.30
75893;DHT22;64572;50.950;3.676;2022-12-07T16:24:22;5.00;95.40
75893;DHT22;64572;50.950;3.676;2022-12-07T16:26:48;5.10;95.20
75893;DHT22;64572;50.950;3.676;2022-12-07T16:29:15;5.10;95.10
75893;DHT22;64572;50.950;3.676;2022-12-07T16:31:41;5.10;95.30
75893;DHT22;64572;50.950;3.676;2022-12-07T16:34:08;5.10;95.50
75893;DHT22;64572;50.950;3.676;2022-12-07T16:36:34;5.10;95.60
75893;DHT22;64572;50.950;3.676;2022-12-07T16:39:00;5.10;95.70
75893;DHT22;64572;50.950;3.676;2022-12-07T16:41:26;5.10;95.70
75893;DHT22;64572;50.950;3.676;2022-12-07T16:43:52;5.10;95.70
75893;DHT22;64572;50.950;3.676;2022-12-07T16:46:18;5.00;96.00
75893;DHT22;64572;50.950;3.676;2022-12-07T16:48:44;5.00;95.70
75893;DHT22;64572;50.950;3.676;2022-12-07T16:51:11;4.90;95.80
75893;DHT22;64572;50.950;3.676;2022-12-07T16:53:39;4.80;95.90
75893;DHT22;64572;50.950;3.676;2022-12-07T16:56:11;4.80;95.90
75893;DHT22;64572;50.950;3.676;2022-12-07T16:58:37;4.80;96.10
75893;DHT22;64572;50.950;3.676;2022-12-07T17:01:13;4.70;96.10
75893;DHT22;64572;50.950;3.676;2022-12-07T17:03:40;4.80;96.20
75893;DHT22;64572;50.950;3.676;2022-12-07T17:06:14;4.70;96.10
75893;DHT22;64572;50.950;3.676;2022-12-07T17:08:40;4.80;96.40
75893;DHT22;64572;50.950;3.676;2022-12-07T17:11:14;4.70;96.30
75893;DHT22;64572;50.950;3.676;2022-12-07T17:13:40;4.70;96.40
75893;DHT22;64572;50.950;3.676;2022-12-07T17:16:24;4.60;96.30
75893;DHT22;64572;50.950;3.676;2022-12-07T17:18:50;4.60;96.40
75893;DHT22;64572;50.950;3.676;2022-12-07T17:21:15;4.60;96.20
75893;DHT22;64572;50.950;3.676;2022-12-07T17:23:41;4.60;96.30
75893;DHT22;64572;50.950;3.676;2022-12-07T17:26:09;4.60;96.30
75893;DHT22;64572;50.950;3.676;2022-12-07T17:28:35;4.70;96.20
75893;DHT22;64572;50.950;3.676;2022-12-07T17:31:05;4.60;96.20
75893;DHT22;64572;50.950;3.676;2022-12-07T17:33:31;4.70;96.10
75893;DHT22;64572;50.950;3.676;2022-12-07T17:35:57;4.60;96.00
75893;DHT22;64572;50.950;3.676;2022-12-07T17:38:23;4.50;96.00
75893;DHT22;64572;50.950;3.676;2022-12-07T17:40:48;4.40;96.10
75893;DHT22;64572;50.950;3.676;2022-12-07T17:43:14;4.50;96.10
75893;DHT22;64572;50.950;3.676;2022-12-07T17:45:40;4.50;95.90
75893;DHT22;64572;50.950;3.676;2022-12-07T17:48:05;4.40;95.90